Flight Track Log - Related Links

Times and Time Zones

All times are in EDT time to prevent confusion due to time zone crossing. See the UAL4679 flight status page for this flight to view local times or setup timezone preferences in your user account.

Time Position Orientation Groundspeed Altitude Reporting Facility
EDT Latitude Longitude Course Direction KTS MPH feet Rate Location/Type
Tue 06:39:09 PM 30.4650 -81.6297 97° East 194 223 2,300  Level Jacksonville Center
Tue 06:40:10 PM 30.5167 -81.5928 32° Northeast 251 289 3,800 1,519 Climbing Jacksonville Center
Tue 06:40:28 PM 30.5314 -81.5950 353° North 252 290 4,300 2,154 Climbing Jacksonville Center
Tue 06:41:28 PM 30.6044 -81.6036 354° North 262 302 6,600 2,950 Climbing Jacksonville Center
Tue 06:42:28 PM 30.6775 -81.6075 357° North 262 302 10,200 2,800 Climbing Jacksonville Center
Tue 06:43:28 PM 30.7425 -81.6117 357° North 250 288 12,200 1,300 Climbing Jacksonville Center
Tue 06:44:28 PM 30.8217 -81.6153 358° North 260 299 12,800 650 Climbing Jacksonville Center
Tue 06:45:28 PM 30.9133 -81.5947 11° North 308 354 13,500 950 Climbing Jacksonville Center
Tue 06:46:28 PM 31.0092 -81.5642 15° North 325 374 14,700 1,250 Climbing Jacksonville Center
Tue 06:47:28 PM 31.1069 -81.5339 15° North 347 399 16,000 1,100 Climbing Jacksonville Center
Tue 06:48:28 PM 31.2028 -81.5033 15° North 352 405 16,900 900 Climbing Jacksonville Center
Tue 06:49:28 PM 31.3047 -81.4725 14° North 359 413 17,800 1,050 Climbing Jacksonville Center
Tue 06:50:28 PM 31.4067 -81.4369 17° North 366 421 19,000 1,100 Climbing Jacksonville Center
Tue 06:51:28 PM 31.5189 -81.4011 15° North 379 436 20,000 1,050 Climbing Jacksonville Center
Tue 06:52:28 PM 31.6208 -81.3678 16° North 379 436 21,100 1,000 Climbing Jacksonville Center
Tue 06:53:28 PM 31.7164 -81.3369 15° North 379 436 22,000 950 Climbing Jacksonville Center
Tue 06:54:28 PM 31.8350 -81.3006 15° North 390 449 23,000 950 Climbing Jacksonville Center
Tue 06:55:28 PM 31.9411 -81.2644 16° North 396 456 23,900 950 Climbing Jacksonville Center
Tue 06:56:28 PM 32.0533 -81.2306 14° North 396 456 24,900 1,000 Climbing Jacksonville Center
Tue 06:57:28 PM 32.1614 -81.1992 14° North 396 456 25,900 1,000 Climbing Jacksonville Center
Tue 06:58:28 PM 32.2719 -81.1897 North 389 448 26,900 550 Climbing Jacksonville Center
Tue 06:59:28 PM 32.3847 -81.1828 North 395 455 27,000 50 Climbing Jacksonville Center
Tue 07:00:28 PM 32.4911 -81.1733 North 415 478 27,000  Level Jacksonville Center
Tue 07:01:28 PM 32.6203 -81.1611 North 428 493 27,000 500 Level Jacksonville Center
Tue 07:02:28 PM 32.7392 -81.1514 North 435 501 28,000 950 Climbing Jacksonville Center
Tue 07:03:28 PM 32.8558 -81.1417 North 424 488 28,900 450 Climbing Jacksonville Center
Tue 07:04:28 PM 32.9747 -81.1344 North 419 482 28,900 50 Level Jacksonville Center
Tue 07:05:28 PM 33.0933 -81.1100 10° North 424 488 29,000 50 Climbing Jacksonville Center
Tue 07:06:28 PM 33.2072 -81.0481 24° Northeast 424 488 29,000  Level Jacksonville Center
Tue 07:07:28 PM 33.3253 -80.9908 22° Northeast 442 509 29,000  Level Jacksonville Center
Tue 07:08:28 PM 33.4414 -80.9261 25° Northeast 452 520 29,000  Level Jacksonville Center
Tue 07:09:28 PM 33.5572 -80.8686 22° Northeast 452 520 29,000  Level Jacksonville Center
Tue 07:10:28 PM 33.6731 -80.8061 24° Northeast 452 520 29,000  Level Jacksonville Center
Tue 07:11:28 PM 33.7869 -80.7461 24° Northeast 452 520 29,000  Level Jacksonville Center
Tue 07:12:28 PM 33.9028 -80.6856 23° Northeast 452 520 29,000  Level Jacksonville Center
Tue 07:13:28 PM 34.0183 -80.6250 23° Northeast 452 520 29,000  Level Jacksonville Center
Tue 07:14:28 PM 34.1319 -80.5619 25° Northeast 452 520 29,000  Level Jacksonville Center
Tue 07:15:28 PM 34.2478 -80.4986 24° Northeast 452 520 29,000  Level Jacksonville Center
Tue 07:17:51 PM 34.5050 -80.3425 27° Northeast 437 503 29,000  Level Washington Center
Tue 07:18:49 PM 34.5947 -80.2417 43° Northeast 442 509 29,000  Level Washington Center
Tue 07:19:49 PM 34.6883 -80.1358 43° Northeast 447 514 29,000  Level Washington Center
Tue 07:20:50 PM 34.7822 -80.0300 43° Northeast 447 514 29,000  Level Washington Center
Tue 07:21:51 PM 34.8736 -79.9286 42° Northeast 447 514 29,000  Level Washington Center
Tue 07:22:51 PM 34.9669 -79.8247 42° Northeast 447 514 29,000  Level Washington Center
Tue 07:23:52 PM 35.0581 -79.7228 42° Northeast 447 514 29,000  Level Washington Center
Tue 07:24:49 PM 35.1514 -79.6208 42° Northeast 447 514 29,000  Level Washington Center
Tue 07:25:50 PM 35.2522 -79.5369 34° Northeast 436 502 29,000  Level Washington Center
Tue 07:26:51 PM 35.3569 -79.4631 30° Northeast 436 502 29,000  Level Washington Center
Tue 07:27:49 PM 35.4531 -79.3939 30° Northeast 436 502 29,000  Level Washington Center
Tue 07:28:50 PM 35.5683 -79.3072 31° Northeast 441 507 29,000  Level Washington Center
Tue 07:29:49 PM 35.6708 -79.2328 31° Northeast 433 498 29,000  Level Washington Center
Tue 07:30:49 PM 35.7775 -79.1558 30° Northeast 433 498 29,000  Level Washington Center
Tue 07:31:51 PM 35.8842 -79.0786 30° Northeast 433 498 29,000  Level Washington Center
Tue 07:32:49 PM 35.9886 -79.0011 31° Northeast 433 498 29,000  Level Washington Center
Tue 07:33:49 PM 36.0931 -78.9208 32° Northeast 433 498 29,000  Level Washington Center
Tue 07:34:50 PM 36.1975 -78.8453 30° Northeast 433 498 29,000  Level Washington Center
Tue 07:35:51 PM 36.3017 -78.7672 31° Northeast 433 498 29,000  Level Washington Center
Tue 07:36:49 PM 36.4081 -78.6889 31° Northeast 433 498 29,000  Level Washington Center
Tue 07:37:50 PM 36.5103 -78.6103 32° Northeast 433 498 29,000  Level Washington Center
Tue 07:38:51 PM 36.6164 -78.5342 30° Northeast 433 498 29,000  Level Washington Center
Tue 07:39:51 PM 36.7167 -78.4525 33° Northeast 433 498 29,000  Level Washington Center
Tue 07:40:52 PM 36.8228 -78.3708 32° Northeast 433 498 29,000  Level Washington Center
Tue 07:41:49 PM 36.9311 -78.2889 31° Northeast 440 506 29,000  Level Washington Center
Tue 07:42:49 PM 37.0350 -78.2067 32° Northeast 440 506 29,000  Level Washington Center
Tue 07:43:50 PM 37.1411 -78.1294 30° Northeast 435 501 29,000  Level Washington Center
Tue 07:44:51 PM 37.2450 -78.0494 32° Northeast 435 501 29,000  Level Washington Center
Tue 07:45:49 PM 37.3489 -77.9667 32° Northeast 435 501 29,000  Level Washington Center
Tue 07:46:50 PM 37.4525 -77.8886 31° Northeast 435 501 29,000  Level Washington Center
Tue 07:47:50 PM 37.5564 -77.8028 33° Northeast 435 501 29,000  Level Washington Center
Tue 07:48:51 PM 37.6539 -77.7139 36° Northeast 435 501 29,000  Level Washington Center
Tue 07:49:51 PM 37.7514 -77.6247 36° Northeast 435 501 29,000  Level Washington Center
Tue 07:50:49 PM 37.8489 -77.5378 35° Northeast 435 501 29,000  Level Washington Center
Tue 07:51:50 PM 37.9442 -77.4508 36° Northeast 429 494 29,000  Level Washington Center
Tue 07:52:51 PM 38.0203 -77.3789 37° Northeast 424 488 29,000  Level Washington Center
Tue 07:53:49 PM 38.1236 -77.2889 34° Northeast 419 482 29,000  Level Washington Center
Tue 07:54:49 PM 38.2167 -77.2039 36° Northeast 414 476 29,000  Level Washington Center
Tue 07:55:49 PM 38.3094 -77.1158 37° Northeast 414 476 29,000  Level Washington Center
Tue 07:56:50 PM 38.4022 -77.0303 36° Northeast 409 471 29,000  Level Washington Center
Tue 07:57:50 PM 38.4950 -76.9444 36° Northeast 409 471 29,000  Level Washington Center
Tue 07:58:51 PM 38.5878 -76.8533 37° Northeast 409 471 29,000  Level Washington Center
Tue 07:59:49 PM 38.6825 -76.7697 35° Northeast 414 476 29,000 -51 Level Washington Center
Tue 08:00:49 PM 38.7689 -76.6700 42° Northeast 414 476 28,900 -541 Descending Washington Center
Tue 08:01:51 PM 38.8572 -76.5700 41° Northeast 414 476 27,900 -934 Descending Washington Center
Tue 08:02:51 PM 38.9456 -76.4669 42° Northeast 414 476 27,000 -458 Descending Washington Center
Tue 08:03:49 PM 39.0339 -76.3667 41° Northeast 420 483 27,000  Level Washington Center
Tue 08:04:50 PM 39.1219 -76.2606 43° Northeast 420 483 27,000  Level Washington Center
Tue 08:05:50 PM 39.2225 -76.1489 41° Northeast 425 489 27,000  Level Washington Center
Tue 08:06:49 PM 39.3106 -76.0450 42° Northeast 430 495 27,000  Level Washington Center
Tue 08:07:49 PM 39.3983 -75.9433 42° Northeast 425 489 27,000 -400 Level Washington Center
Tue 08:08:49 PM 39.4861 -75.8389 43° Northeast 425 489 26,200 -1,140 Descending Washington Center
Tue 08:09:50 PM 39.5781 -75.7289 43° Northeast 425 489 24,700 -1,835 Descending Washington Center
Tue 08:10:50 PM 39.6656 -75.6239 43° Northeast 425 489 22,500 -2,033 Descending Washington Center
Tue 08:11:51 PM 39.7531 -75.5214 42° Northeast 425 489 20,600 -1,934 Descending Washington Center
Tue 08:12:51 PM 39.8383 -75.4186 43° Northeast 420 483 18,600 -1,950 Descending Washington Center
Tue 08:13:51 PM 39.9194 -75.3211 43° Northeast 413 475 16,700 -2,400 Descending Washington Center
Tue 08:14:51 PM 39.9964 -75.2258 43° Northeast 399 459 13,800 -1,977 Descending Washington Center
Tue 08:16:44 PM 40.1333 -75.0500 44° Northeast 350 403 11,000 -1,387 Descending New York TRACON
Tue 08:17:44 PM 40.2000 -74.9667 44° Northeast 287 330 9,800 -1,381 Descending New York TRACON
Tue 08:18:50 PM 40.2667 -74.9000 37° Northeast 271 312 8,100 -857 Descending New York TRACON
Tue 08:19:50 PM 40.3167 -74.8333 45° Northeast 266 306 8,000 -550 Descending New York TRACON
Tue 08:20:50 PM 40.3667 -74.7667 45° Northeast 260 299 7,000 -950 Descending New York TRACON
Tue 08:21:50 PM 40.4167 -74.6833 52° Northeast 261 300 6,100 -500 Descending New York TRACON
Tue 08:22:50 PM 40.4833 -74.6500 21° North 267 307 6,000  Descending New York TRACON
Tue 08:23:44 PM 40.5333 -74.6333 14° North 262 302 6,100  Climbing New York TRACON
Tue 08:24:44 PM 40.6000 -74.6167 11° North 265 305 6,000  Descending New York TRACON
Tue 08:25:44 PM 40.6833 -74.6000 North 265 305 6,100  Climbing New York TRACON
Tue 08:26:44 PM 40.7500 -74.5500 30° Northeast 262 302 6,000 -50 Descending New York TRACON
Tue 08:27:44 PM 40.8000 -74.5000 37° Northeast 258 297 6,000  Level New York TRACON
Tue 08:28:44 PM 40.8667 -74.4500 30° Northeast 260 299 6,000 -400 Level New York TRACON
Tue 08:29:44 PM 40.9167 -74.3833 45° Northeast 254 292 5,200 -850 Descending New York TRACON
Tue 08:30:44 PM 40.9333 -74.2833 78° East 247 284 4,300 -600 Descending New York TRACON
Tue 08:31:44 PM 40.9167 -74.2000 105° East 249 287 4,000 -500 Descending New York TRACON
Tue 08:32:44 PM 40.9000 -74.1167 105° East 253 291 3,300 -500 Descending New York TRACON
Tue 08:33:44 PM 40.8500 -74.0667 143° Southeast 219 252 3,000 -450 Descending New York TRACON
Tue 08:34:44 PM 40.8000 -74.1000 207° Southwest 190 219 2,400 -800 Descending New York TRACON
Tue 08:35:44 PM 40.7500 -74.1167 194° South 178 205 1,400 -1,000 Descending New York TRACON

Login

Don't have an account? Register now (free) for customized features, flight alerts, and more!